Washoe Valley, Nevada
Current Conditions -  °F | °C
As of 12:55 PM on Sunday 21 Dec 2014 (Local Time) from KCXP Reporting Station
Clear Clear  
Wind Chill: 59°   Ceiling: Unl
Heat Index: 59°   Visibility: 10mi
Dew Point: 37°   Wind: 16mph
Humidity: 45%   Direction: 280°W
Pressure: 30.19"   Gusts: 22mph
Location:  39.32°N, 119.8°W
Report Text: KCXP 212055Z AUTO 28014G19KT 10SM CLR 15/03 A3019 RMK AO2
Loading
Personal Weather Stations






























Interactive Weather Map New forecast layout! Learn more

10-Day Weather Forecast

Advertisements
Track Severe Weather on mobile